Gillam Airport
CYGX : rendu visible

Aérodrome :











RETROUVEZ-NOUS SUR...

 
LOGIN :

S'inscrire | Disclaimer

   EN    FR    IT 

 









Légende :    VFR   VFR Marginal   IFR   IFR Intensif   IFR Très Intensif
Visi : 
Plafond : 
>= 8 km
>= 3000ft
5 à 8 km
1000 à 3000 ft
1500m à 5 km
500 à 1000 ft
800 à 1500m
200 à 500 ft
< 800m
< 200 ft
Symboles :   Orages  Brouillard  Fortes neiges  Fortes précipitations  Vent > 20 kt






- Altitude de l'aérodrome : 476 ft
- Code IATA : YGX


CYGX - Gillam

DERNIER METAR :
  • 241500Z 01012KT 3SM -SN OVC005 M18/M22 A3015 RMK SC8 SLP230

METARs EXPIRÉS :
  • 241418Z 01011G16KT 3SM -SN OVC005 M18/M21 A3013 RMK SC8 SLP222
  • 241300Z 01012KT 12SM -SN OVC010 M18/M21 A3009 RMK SC8 SLP209

TAF AMD TAF CYGX
Valide du 24 à 14h jusqu'au 25 à 01h UTC


241428Z 2414/2501 01012KT 3SM -SN OVC005
TEMPO 2414/2419 P6SM NSW OVC010
FM241900 36010KT P6SM SCT012 BKN050
TEMPO 2419/2501 P6SM -SN BKN012 OVC050 RMK NXT FCST BY 241900Z



MET'MAP, la Météo Aéronautique d'un coup d'oeil ! - Copyright ORBIFLY Décembre 2007 - Disclaimer

ORBIFLY MET'MAP TEAM :

Programmation & Développement : Alexandra Zaïnal
Sur une idée originale de : Baudouin d'Aumeries
Assistance à la programmation : Marc-Olivier Méhu
Soutien technique & logistique : Manuel Goepfert

Contact : metmap@orbifly.com




SOURCES & CREDITS :

   NOAA       Earth
Advisory